Time;durP1;ratioP1;P1;durP2;ratioP2;P2;SDS_P1;SDS_P2;PMS_P1;PMS_P2;Temp;Humidity;BMP_temperature;BMP_pressure;BME280_temperature;BME280_humidity;BME280_pressure;Samples;Min_cycle;Max_cycle;Signal;HPM_P1;HPM_P2
2022/04/16 00:08:16;;;;;;;;;;;;;;;;;;20748033;28;19925;-60
2022/04/16 00:18:19;;;;;;;;;;;;;;;;;;20755068;28;19921;-60
2022/04/16 00:28:21;;;;;;;;;;;;;;;;;;20760976;28;19977;-59
2022/04/16 00:38:23;;;;;;;;;;;;;;;;;;20758435;28;20022;-63
2022/04/16 00:48:25;;;;;;;;;;;;;;;;;;20760571;28;19922;-63
2022/04/16 00:58:27;;;;;;;;;;;;;;;;;;20759876;28;20288;-60
2022/04/16 01:08:29;;;;;;;;;;;;;;;;;;20758582;28;19928;-61
2022/04/16 01:18:32;;;;;;;;;;;;;;;;;;20756865;28;19961;-58
2022/04/16 01:28:37;;;;;;;;;;;;;;;;;;20756421;28;20383;-60
2022/04/16 01:38:44;;;;;;;;;;;;;;;;;;20754900;28;19921;-64
2022/04/16 01:48:55;;;;;;;;;;;;;;;;;;20754463;28;20269;-60
2022/04/16 01:59:03;;;;;;;;;;;;;;;;;;20753672;28;19921;-62
2022/04/16 02:09:09;;;;;;;;;;;;;;;;;;20753337;28;20000;-61
2022/04/16 02:19:31;;;;;;;;;;;;;;;;;;20753140;28;19925;-62
2022/04/16 02:29:50;;;;;;;;;;;;;;;;;;20751790;28;20378;-60
2022/04/16 02:39:56;;;;;;;;;;;;;;;;;;20751282;28;20351;-62
2022/04/16 02:50:02;;;;;;;;;;;;;;;;;;20751712;28;19921;-59
2022/04/16 03:00:08;;;;;;;;;;;15.40;58.80;;;;;;20749923;28;20367;-63
2022/04/16 03:10:11;;;;;;;;;;;;;;;;;;20749686;28;19927;-61
2022/04/16 03:20:15;;;;;;;;;;;;;;;;;;20748908;28;19921;-62
2022/04/16 03:30:18;;;;;;;;;;;;;;;;;;20749565;28;19922;-59
2022/04/16 03:40:24;;;;;;;;;;;;;;;;;;20746908;28;19928;-60
2022/04/16 03:50:26;;;;;;;;;;;;;;;;;;20750677;28;19944;-60
2022/04/16 04:00:28;;;;;;;;;;;;;;;;;;20764054;28;19922;-66
2022/04/16 04:10:30;;;;;;;;;;;;;;;;;;20762567;28;19964;-62
2022/04/16 04:20:32;;;;;;;;;;;;;;;;;;20761661;28;19921;-59
2022/04/16 04:30:34;;;;;;;;;;;;;;;;;;20761325;28;19921;-59
2022/04/16 04:40:36;;;;;;;;;;;;;;;;;;20760565;28;20349;-59
2022/04/16 04:50:38;;;;;;;;;;;;;;;;;;20760053;28;19925;-60
2022/04/16 05:00:40;;;;;;;;;;;;;;;;;;20758068;28;19973;-59
2022/04/16 05:10:42;;;;;;;;;;;14.00;61.00;;;;;;20759132;28;19996;-58
2022/04/16 05:20:43;;;;;;;;;;;13.20;63.10;;;;;;20757937;28;19968;-62
2022/04/16 05:30:48;;;;;;;;;;;12.70;65.00;;;;;;20756051;28;19921;-59
2022/04/16 05:40:49;;;;;;;;;;;12.60;65.50;;;;;;20755786;28;20288;-60
2022/04/16 05:50:51;;;;;;;;;;;12.60;65.60;;;;;;20753648;28;19975;-60
2022/04/16 06:00:54;;;;;;;;;;;12.60;65.40;;;;;;20753380;28;19926;-61
2022/04/16 06:10:55;;;;;;;;;;;12.60;65.50;;;;;;20753943;28;19921;-61
2022/04/16 06:20:57;;;;;;;;;;;12.60;65.80;;;;;;20751901;28;20379;-68
2022/04/16 06:30:58;;;;;;;;;;;12.60;65.70;;;;;;20752205;28;19928;-63
2022/04/16 06:41:00;;;;;;;;;;;12.80;65.30;;;;;;20751651;28;19928;-59
2022/04/16 06:51:01;;;;;;;;;;;13.10;64.70;;;;;;20750101;28;19932;-63
2022/04/16 07:01:03;;;;;;;;;;;13.40;64.30;;;;;;20749317;28;19928;-59
2022/04/16 07:11:04;;;;;;;;;;;13.70;63.60;;;;;;20749368;28;19921;-61
2022/04/16 07:21:05;;;;;;;;;;;14.10;62.60;;;;;;20749281;28;20366;-60
2022/04/16 07:31:07;;;;;;;;;;;14.70;60.90;;;;;;20748678;28;20037;-59
2022/04/16 07:41:10;;;;;;;;;;;15.20;59.50;;;;;;20754180;28;19922;-61
2022/04/16 07:51:11;;;;;;;;;;;15.70;58.30;;;;;;20750509;28;19922;-64
2022/04/16 08:01:13;;;;;;;;;;;16.60;56.10;;;;;;20747069;28;20360;-61
2022/04/16 08:11:14;;;;;;;;;;;;;;;;;;20748033;28;20323;-59
2022/04/16 08:21:16;;;;;;;;;;;18.40;51.90;;;;;;20746363;28;19925;-60
2022/04/16 08:31:18;;;;;;;;;;;;;;;;;;20745586;28;19925;-58
2022/04/16 08:41:19;;;;;;;;;;;20.30;47.40;;;;;;20752809;28;20036;-58
2022/04/16 08:51:21;;;;;;;;;;;19.60;48.40;;;;;;20791429;28;19921;-59
2022/04/16 09:01:22;;;;;;;;;;;19.90;47.50;;;;;;20758601;28;19961;-59
2022/04/16 09:11:24;;;;;;;;;;;20.40;46.30;;;;;;20759497;28;19922;-60
2022/04/16 09:21:27;;;;;;;;;;;20.70;45.30;;;;;;20758546;28;19929;-60
2022/04/16 09:31:29;;;;;;;;;;;;;;;;;;20760104;28;19921;-66
2022/04/16 09:41:34;;;;;;;;;;;21.20;44.10;;;;;;20757137;28;19976;-63
2022/04/16 09:51:37;;;;;;;;;;;21.50;42.00;;;;;;20786714;28;19983;-60
2022/04/16 10:01:41;;;;;;;;;;;21.60;43.10;;;;;;20755344;28;19967;-61
2022/04/16 10:22:07;;;;;;;;;;;22.50;42.20;;;;;;20752546;28;20358;-58
2022/04/16 10:32:16;;;;;;;;;;;22.20;44.00;;;;;;20751704;28;19944;-67
2022/04/16 10:42:27;;;;;;;;;;;22.20;42.30;;;;;;20703830;28;19934;-61
2022/04/16 10:52:29;;;;;;;;;;;23.70;38.90;;;;;;20683045;28;19925;-65
2022/04/16 11:02:35;;;;;;;;;;;22.90;39.30;;;;;;20744681;28;20375;-64
2022/04/16 11:12:36;;;;;;;;;;;23.50;38.10;;;;;;20749473;28;20015;-66
2022/04/16 11:22:38;;;;;;;;;;;23.20;38.60;;;;;;20747970;28;19921;-64
2022/04/16 11:43:05;;;;;;;;;;;24.20;35.90;;;;;;20750318;28;19925;-65
2022/04/16 11:53:06;;;;;;;;;;;23.80;35.90;;;;;;20755603;28;20040;-64
2022/04/16 12:03:12;;;;;;;;;;;;;;;;;;20751116;28;19921;-64
2022/04/16 12:13:13;;;;;;;;;;;;;;;;;;20755068;28;19952;-65
2022/04/16 12:23:16;;;;;;;;;;;;;;;;;;20763999;28;19944;-64
2022/04/16 12:33:22;;;;;;;;;;;;;;;;;;20766451;28;19925;-64
2022/04/16 12:43:24;;;;;;;;;;;;;;;;;;20760527;28;20035;-63
2022/04/16 12:53:26;;;;;;;;;;;;;;;;;;20763272;28;20016;-63
2022/04/16 13:03:27;;;;;;;;;;;;;;;;;;20765971;28;19932;-64
2022/04/16 13:13:29;;;;;;;;;;;25.60;32.80;;;;;;20760027;28;19922;-63
2022/04/16 13:23:31;;;;;;;;;;;25.30;32.90;;;;;;20777423;28;19921;-66
2022/04/16 13:33:33;;;;;;;;;;;25.60;31.50;;;;;;20772511;28;20355;-66
2022/04/16 13:43:35;;;;;;;;;;;25.80;31.30;;;;;;20757671;28;20371;-64
2022/04/16 13:53:37;;;;;;;;;;;25.70;31.00;;;;;;20756989;28;20287;-65
2022/04/16 14:03:38;;;;;;;;;;;25.70;31.60;;;;;;20755280;28;19921;-63
2022/04/16 14:13:43;;;;;;;;;;;26.00;31.00;;;;;;20753459;28;20015;-64
2022/04/16 14:23:44;;;;;;;;;;;25.90;31.40;;;;;;20753104;28;20023;-65
2022/04/16 14:33:46;;;;;;;;;;;25.90;31.70;;;;;;20751336;28;19921;-65
2022/04/16 14:43:48;;;;;;;;;;;25.80;31.50;;;;;;20783324;28;19992;-63
2022/04/16 14:53:50;;;;;;;;;;;25.50;32.30;;;;;;20750601;28;19928;-63
2022/04/16 15:03:51;;;;;;;;;;;25.70;32.30;;;;;;20751096;28;19929;-64
2022/04/16 15:13:53;;;;;;;;;;;25.90;31.20;;;;;;20750390;28;19944;-65
2022/04/16 15:23:55;;;;;;;;;;;25.90;31.10;;;;;;20747753;28;19933;-64
2022/04/16 15:34:00;;;;;;;;;;;25.80;31.50;;;;;;20749137;28;19952;-64
2022/04/16 15:44:03;;;;;;;;;;;25.90;32.00;;;;;;20749665;28;20359;-62
2022/04/16 15:54:05;;;;;;;;;;;26.20;31.30;;;;;;20764867;28;19921;-65
2022/04/16 16:04:54;;;;;;;;;;;26.30;30.90;;;;;;20724206;28;19971;-64
2022/04/16 16:14:27;;;;;;;;;;;26.00;31.00;;;;;;20764490;28;19932;-64
2022/04/16 16:24:29;;;;;;;;;;;26.10;31.20;;;;;;20762114;28;20020;-63
2022/04/16 16:34:30;;;;;;;;;;;26.20;31.00;;;;;;20758913;28;19944;-62
2022/04/16 16:44:32;;;;;;;;;;;25.70;31.50;;;;;;20759791;28;19921;-64
2022/04/16 16:54:34;;;;;;;;;;;25.40;32.10;;;;;;20759201;28;20461;-67
2022/04/16 17:25:16;;;;;;;;;;;25.20;31.70;;;;;;20756239;28;19921;-63
2022/04/16 17:35:17;;;;;;;;;;;25.00;31.80;;;;;;20755546;28;19933;-65
2022/04/16 17:45:20;;;;;;;;;;;24.80;32.00;;;;;;20754156;28;19945;-66
2022/04/16 17:55:21;;;;;;;;;;;24.60;32.20;;;;;;20754610;28;19921;-64
2022/04/16 18:05:24;;;;;;;;;;;24.30;32.50;;;;;;20754746;28;19983;-63
2022/04/16 18:15:25;;;;;;;;;;;24.20;32.50;;;;;;20754600;28;19968;-65
2022/04/16 18:25:26;;;;;;;;;;;24.00;32.80;;;;;;20754868;28;19921;-66
2022/04/16 18:35:29;;;;;;;;;;;23.70;33.10;;;;;;20750781;28;19925;-64
2022/04/16 18:45:31;;;;;;;;;;;23.60;33.20;;;;;;20750044;28;19932;-64
2022/04/16 18:55:32;;;;;;;;;;;23.20;33.80;;;;;;20750061;28;20331;-65
2022/04/16 19:15:53;;;;;;;;;;;22.60;35.10;;;;;;20748770;28;19930;-64
2022/04/16 19:25:55;;;;;;;;;;;22.30;35.50;;;;;;20747234;28;20431;-67
2022/04/16 19:35:57;;;;;;;;;;;22.20;35.80;;;;;;20747943;28;19929;-64
2022/04/16 19:45:58;;;;;;;;;;;21.90;36.30;;;;;;20749812;28;20017;-63
2022/04/16 19:56:02;;;;;;;;;;;21.70;36.60;;;;;;20749055;28;19922;-65
2022/04/16 20:06:03;;;;;;;;;;;21.50;37.20;;;;;;20746743;28;20300;-62
2022/04/16 20:16:05;;;;;;;;;;;21.30;37.50;;;;;;20745925;28;19929;-65
2022/04/16 20:26:07;;;;;;;;;;;21.20;38.00;;;;;;20745514;28;19922;-64
2022/04/16 20:36:08;;;;;;;;;;;20.90;38.60;;;;;;20754105;28;19925;-64
2022/04/16 20:46:10;;;;;;;;;;;20.70;38.80;;;;;;20760109;28;20394;-62
2022/04/16 20:56:11;;;;;;;;;;;20.40;39.40;;;;;;20759517;28;19931;-64
2022/04/16 21:06:12;;;;;;;;;;;20.20;39.80;;;;;;20760795;28;20429;-64
2022/04/16 21:16:14;;;;;;;;;;;20.00;40.40;;;;;;20758057;28;19925;-64
2022/04/16 21:26:17;;;;;;;;;;;19.80;40.80;;;;;;20757176;28;19992;-62
2022/04/16 21:36:19;;;;;;;;;;;19.70;41.30;;;;;;20756061;28;19921;-63
2022/04/16 21:46:21;;;;;;;;;;;19.50;41.50;;;;;;20755314;28;19925;-65
2022/04/16 21:56:23;;;;;;;;;;;19.40;42.00;;;;;;20754231;28;19976;-63
2022/04/16 22:06:25;;;;;;;;;;;19.20;42.00;;;;;;20753803;28;19928;-65
2022/04/16 22:16:26;;;;;;;;;;;19.10;42.40;;;;;;20754046;28;20338;-65
2022/04/16 22:26:29;;;;;;;;;;;18.90;43.20;;;;;;20753351;28;19932;-63
2022/04/16 22:36:31;;;;;;;;;;;18.70;43.80;;;;;;20751382;28;19926;-63
2022/04/16 22:46:32;;;;;;;;;;;18.70;44.10;;;;;;20751169;28;19953;-64
2022/04/16 22:56:34;;;;;;;;;;;18.70;44.10;;;;;;20750671;28;19928;-63
2022/04/16 23:06:36;;;;;;;;;;;18.40;44.90;;;;;;20750312;28;20272;-64
2022/04/16 23:16:37;;;;;;;;;;;18.20;46.10;;;;;;20754460;28;20016;-66
2022/04/16 23:26:38;;;;;;;;;;;18.00;46.40;;;;;;20749245;28;19925;-64
2022/04/16 23:36:40;;;;;;;;;;;17.90;46.80;;;;;;20748762;28;20328;-63
2022/04/16 23:46:56;;;;;;;;;;;17.90;47.10;;;;;;20779966;28;19921;-63
2022/04/16 23:56:58;;;;;;;;;;;18.00;47.10;;;;;;20775598;28;19922;-63
